Time;durP1;ratioP1;P1;durP2;ratioP2;P2;SDS_P1;SDS_P2;PMS_P1;PMS_P2;Temp;Humidity;BMP_temperature;BMP_pressure;BME280_temperature;BME280_humidity;BME280_pressure;Samples;Min_cycle;Max_cycle;Signal;HPM_P1;HPM_P2
2023/09/21 00:00:11;;;;;;;;;;;;;;;19.49;100.00;99240.94;4982125;28;20287;-77
2023/09/21 00:02:38;;;;;;;;;;;;;;;19.48;100.00;99239.28;4996798;28;19973;-77
2023/09/21 00:05:03;;;;;;;;;;;;;;;19.46;100.00;99225.28;4979910;28;19926;-77
2023/09/21 00:07:29;;;;;;;;;;;;;;;19.48;100.00;99225.91;4985363;28;20307;-76
2023/09/21 00:09:55;;;;;;;;;;;;;;;19.49;100.00;99225.69;4980471;28;19944;-77
2023/09/21 00:12:20;;;;;;;;;;;;;;;19.49;100.00;99224.88;4982046;28;20379;-77
2023/09/21 00:14:46;;;;;;;;;;;;;;;19.50;100.00;99218.47;4982589;28;20366;-76
2023/09/21 00:17:12;;;;;;;;;;;;;;;19.53;100.00;99218.88;4980396;28;19969;-77
2023/09/21 00:19:38;;;;;;;;;;;;;;;19.54;100.00;99211.69;4982728;28;20280;-76
2023/09/21 00:22:04;;;;;;;;;;;;;;;19.56;100.00;99209.59;4982660;28;19931;-75
2023/09/21 00:24:30;;;;;;;;;;;;;;;19.51;100.00;99196.84;4980704;28;19942;-75
2023/09/21 00:26:56;;;;;;;;;;;;;;;19.54;100.00;99199.13;4985193;28;19921;-76
2023/09/21 00:29:22;;;;;;;;;;;;;;;19.51;100.00;99191.50;4978903;28;20044;-77
2023/09/21 00:31:48;;;;;;;;;;;;;;;19.53;100.00;99188.63;4981682;28;20370;-75
2023/09/21 00:34:13;;;;;;;;;;;;;;;19.52;100.00;99187.81;4997338;28;19922;-75
2023/09/21 00:36:42;;;;;;;;;;;;;;;19.47;100.00;99171.56;4980434;28;19922;-75
2023/09/21 00:39:09;;;;;;;;;;;;;;;19.43;100.00;99177.50;4996102;28;19933;-75
2023/09/21 00:41:34;;;;;;;;;;;;;;;19.40;100.00;99167.19;4992934;28;20290;-75
2023/09/21 00:44:05;;;;;;;;;;;;;;;19.34;100.00;99176.06;4975613;28;19929;-74
2023/09/21 00:46:35;;;;;;;;;;;;;;;19.34;100.00;99170.72;4984043;28;19929;-75
2023/09/21 00:49:03;;;;;;;;;;;;;;;19.35;100.00;99175.88;4996712;28;19921;-74
2023/09/21 00:51:29;;;;;;;;;;;;;;;19.38;100.00;99169.28;4998231;28;20037;-73
2023/09/21 00:53:56;;;;;;;;;;;;;;;19.34;100.00;99168.03;4985171;28;20020;-74
2023/09/21 00:56:22;;;;;;;;;;;;;;;19.37;100.00;99173.00;4983198;28;19923;-74
2023/09/21 00:58:50;;;;;;;;;;;;;;;19.37;100.00;99173.00;4980052;28;20148;-74
2023/09/21 01:01:16;;;;;;;;;;;;;;;19.34;100.00;99168.03;4980732;28;19960;-74
2023/09/21 01:03:43;;;;;;;;;;;;;;;19.33;100.00;99166.38;4982117;28;19922;-75
2023/09/21 01:06:12;;;;;;;;;;;;;;;19.29;100.00;99170.50;4985882;28;19961;-75
2023/09/21 01:08:37;;;;;;;;;;;;;;;19.30;100.00;99166.81;4986974;28;19922;-74
2023/09/21 01:11:08;;;;;;;;;;;;;;;19.28;100.00;99168.88;4985287;28;19922;-75
2023/09/21 01:13:35;;;;;;;;;;;;;;;19.28;100.00;99166.19;4982875;28;19925;-75
2023/09/21 01:16:02;;;;;;;;;;;;;;;19.29;100.00;99170.50;5001447;28;19984;-76
2023/09/21 01:18:28;;;;;;;;;;;;;;;19.33;100.00;99167.22;4983396;28;19926;-76
2023/09/21 01:20:58;;;;;;;;;;;;;;;19.28;100.00;99155.50;4984203;28;20068;-76
2023/09/21 01:23:32;;;;;;;;;;;;;;;19.29;100.00;99152.63;4982235;28;20012;-76
2023/09/21 01:25:59;;;;;;;;;;;;;;;19.30;100.00;99154.25;4979485;28;19926;-76
2023/09/21 01:28:29;;;;;;;;;;;;;;;19.35;100.00;99162.47;4982090;28;19922;-76
2023/09/21 01:30:56;;;;;;;;;;;;;;;19.38;100.00;99153.22;4986197;28;19926;-75
2023/09/21 01:33:23;;;;;;;;;;;;;;;19.33;100.00;99147.66;5001051;28;19929;-74
2023/09/21 01:35:48;;;;;;;;;;;;;;;19.30;100.00;99145.41;4989004;28;19932;-76
2023/09/21 01:38:14;;;;;;;;;;;;;;;19.15;100.00;99135.75;4981642;28;19922;-75
2023/09/21 01:40:41;;;;;;;;;;;;;;;19.08;100.00;99136.81;4984727;28;19964;-75
2023/09/21 01:43:07;;;;;;;;;;;;;;;19.10;100.00;99146.25;4982661;28;19948;-76
2023/09/21 01:45:42;;;;;;;;;;;;;;;19.08;100.00;99137.63;4983861;28;20797;-76
2023/09/21 01:48:09;;;;;;;;;;;;;;;18.97;100.00;99140.91;4981435;28;19973;-76
2023/09/21 01:50:46;;;;;;;;;;;;;;;18.97;100.00;99140.91;4982579;28;19922;-76
2023/09/21 01:53:12;;;;;;;;;;;;;;;19.01;100.00;99139.50;4985188;28;19976;-75
2023/09/21 01:55:38;;;;;;;;;;;;;;;18.99;100.00;99130.84;4983769;28;19922;-75
2023/09/21 01:58:04;;;;;;;;;;;;;;;18.93;100.00;99122.81;4980739;28;19922;-76
2023/09/21 02:00:30;;;;;;;;;;;;;;;18.94;100.00;99132.50;4981918;28;20396;-74
2023/09/21 02:02:55;;;;;;;;;;;;;;;18.90;100.00;99124.06;4983826;28;20366;-75
2023/09/21 02:05:21;;;;;;;;;;;;;;;18.97;100.00;99127.53;4980344;28;19929;-75
2023/09/21 02:07:47;;;;;;;;;;;;;;;19.00;100.00;99129.00;4984654;28;19953;-76
2023/09/21 02:10:17;;;;;;;;;;;;;;;19.04;100.00;99136.38;4997676;28;19922;-78
2023/09/21 02:12:55;;;;;;;;;;;;;;;19.06;100.00;99128.16;4982947;28;19928;-76
2023/09/21 02:15:21;;;;;;;;;;;;;;;19.09;100.00;99122.38;4984114;28;19921;-75
2023/09/21 02:17:47;;;;;;;;;;;;;;;19.11;100.00;99110.47;4982021;28;19922;-76
2023/09/21 02:20:14;;;;;;;;;;;;;;;19.15;100.00;99114.34;4982203;28;19922;-77
2023/09/21 02:22:46;;;;;;;;;;;;;;;19.11;100.00;99110.47;4984709;28;19929;-76
2023/09/21 02:25:12;;;;;;;;;;;;;;;19.11;100.00;99105.13;4991581;28;19933;-77
2023/09/21 02:27:38;;;;;;;;;;;;;;;18.98;100.00;99102.44;4981087;28;19978;-74
2023/09/21 02:30:08;;;;;;;;;;;;;;;18.99;100.00;99105.94;4981748;28;19922;-74
2023/09/21 02:32:36;;;;;;;;;;;;;;;19.02;100.00;99109.06;4997252;28;19922;-75
2023/09/21 02:35:03;;;;;;;;;;;;;;;18.96;100.00;99101.84;4986582;28;19924;-76
2023/09/21 02:37:28;;;;;;;;;;;;;;;18.91;100.00;99092.81;4979726;28;19925;-75
2023/09/21 02:39:54;;;;;;;;;;;;;;;18.85;100.00;99093.66;4982977;28;19921;-76
2023/09/21 02:42:19;;;;;;;;;;;;;;;18.87;100.00;99103.09;4980731;28;19928;-74
2023/09/21 02:44:46;;;;;;;;;;;;;;;18.87;100.00;99096.91;4996390;28;19922;-75
2023/09/21 02:47:11;;;;;;;;;;;;;;;18.80;100.00;99088.91;4998423;28;19918;-75
2023/09/21 02:49:37;;;;;;;;;;;;;;;18.80;100.00;99080.88;4983217;28;19929;-76
2023/09/21 02:52:04;;;;;;;;;;;;;;;18.61;100.00;99081.72;4982017;28;20366;-77
2023/09/21 02:54:32;;;;;;;;;;;;;;;18.69;100.00;99084.16;4998187;28;19940;-76
2023/09/21 02:56:57;;;;;;;;;;;;;;;18.69;100.00;99081.50;4980088;28;19922;-76
2023/09/21 02:59:25;;;;;;;;;;;;;;;18.74;100.00;99071.00;4981645;28;19932;-75
2023/09/21 03:01:54;;;;;;;;;;;;;;;18.67;100.00;99070.22;4983768;28;19937;-76
2023/09/21 03:04:19;;;;;;;;;;;;;;;18.63;100.00;99068.97;4981283;28;19945;-76
2023/09/21 03:06:45;;;;;;;;;;;;;;;18.51;100.00;99065.22;4982743;28;19966;-76
2023/09/21 03:09:10;;;;;;;;;;;;;;;18.40;100.00;99064.81;4986311;28;19922;-74
2023/09/21 03:11:36;;;;;;;;;;;;;;;18.37;100.00;99070.59;4994950;28;19930;-75
2023/09/21 03:14:03;;;;;;;;;;;;;;;18.45;100.00;99071.38;4985594;28;19922;-75
2023/09/21 03:16:29;;;;;;;;;;;;;;;18.48;100.00;99069.16;4991242;28;19930;-74
2023/09/21 03:18:54;;;;;;;;;;;;;;;18.47;100.00;99074.69;4999429;28;19926;-74
2023/09/21 03:21:19;;;;;;;;;;;;;;;18.48;100.00;99071.00;4981275;28;19937;-78
2023/09/21 03:23:46;;;;;;;;;;;;;;;18.50;100.00;99075.09;4983551;28;19926;-75
2023/09/21 03:26:14;;;;;;;;;;;;;;;18.51;100.00;99075.91;4981153;28;20359;-76
2023/09/21 03:28:39;;;;;;;;;;;;;;;18.47;100.00;99074.69;4981299;28;19929;-76
2023/09/21 03:31:05;;;;;;;;;;;;;;;18.50;100.00;99075.09;4980348;28;19926;-76
2023/09/21 03:33:31;;;;;;;;;;;;;;;18.50;100.00;99085.78;4981500;28;19926;-76
2023/09/21 03:35:57;;;;;;;;;;;;;;;18.52;100.00;99093.59;4981647;28;20401;-76
2023/09/21 03:38:22;;;;;;;;;;;;;;;18.53;100.00;99089.91;4980537;28;19922;-74
2023/09/21 03:40:49;;;;;;;;;;;;;;;18.57;100.00;99091.16;4997473;28;19932;-74
2023/09/21 03:43:14;;;;;;;;;;;;;;;18.61;100.00;99081.72;4982989;28;19922;-75
2023/09/21 03:45:41;;;;;;;;;;;;;;;18.57;100.00;99073.28;4980750;28;20008;-74
2023/09/21 03:48:08;;;;;;;;;;;;;;;18.58;100.00;99074.94;4981487;28;20289;-75
2023/09/21 03:50:35;;;;;;;;;;;;;;;18.63;100.00;99074.31;4978725;28;19957;-75
2023/09/21 03:53:04;;;;;;;;;;;;;;;18.66;100.00;99068.56;4983387;28;19971;-76
2023/09/21 03:55:34;;;;;;;;;;;;;;;18.67;100.00;99064.88;4975763;28;19926;-75
2023/09/21 03:57:59;;;;;;;;;;;;;;;18.69;100.00;99073.47;4995141;28;19929;-74
2023/09/21 04:02:50;;;;;;;;;;;;;;;18.57;100.00;99053.75;4977259;28;20016;-75
2023/09/21 04:05:18;;;;;;;;;;;;;;;18.41;100.00;99055.78;4978544;28;19973;-75
2023/09/21 04:07:48;;;;;;;;;;;;;;;18.37;100.00;99053.75;4981435;28;19921;-75
2023/09/21 04:10:15;;;;;;;;;;;;;;;18.23;100.00;99050.22;4983795;28;20398;-74
2023/09/21 04:12:41;;;;;;;;;;;;;;;18.18;100.00;99050.00;4999031;28;19937;-74
2023/09/21 04:15:07;;;;;;;;;;;;;;;18.18;100.00;99057.19;4982070;28;19926;-74
2023/09/21 04:17:32;;;;;;;;;;;;;;;18.19;100.00;99053.50;4981480;28;19922;-75
2023/09/21 04:19:58;;;;;;;;;;;;;;;18.16;100.00;99041.38;4994822;28;20409;-74
2023/09/21 04:22:23;;;;;;;;;;;;;;;18.21;100.00;99044.25;4978787;28;20307;-76
2023/09/21 04:24:49;;;;;;;;;;;;;;;18.23;100.00;99042.22;4979454;28;19922;-76
2023/09/21 04:27:14;;;;;;;;;;;;;;;18.24;100.00;99043.84;4983804;28;19917;-76
2023/09/21 04:29:39;;;;;;;;;;;;;;;18.27;100.00;99040.78;4982434;28;19968;-76
2023/09/21 04:32:05;;;;;;;;;;;;;;;18.28;100.00;99039.75;4985206;28;19928;-75
2023/09/21 04:34:31;;;;;;;;;;;;;;;18.31;100.00;99039.34;4978775;28;19922;-74
2023/09/21 04:36:57;;;;;;;;;;;;;;;18.30;100.00;99029.69;4993834;28;19922;-77
2023/09/21 04:39:23;;;;;;;;;;;;;;;18.29;100.00;99025.38;4983091;28;19941;-75
2023/09/21 04:41:49;;;;;;;;;;;;;;;18.33;100.00;99031.13;4991283;28;19958;-77
2023/09/21 04:44:15;;;;;;;;;;;;;;;18.32;100.00;99030.28;4977585;28;19930;-75
2023/09/21 04:46:42;;;;;;;;;;;;;;;18.33;100.00;99025.78;4973070;28;20450;-77
2023/09/21 04:49:08;;;;;;;;;;;;;;;18.29;100.00;99020.03;4993217;28;20469;-77
2023/09/21 04:51:34;;;;;;;;;;;;;;;18.27;100.00;99018.56;4971221;28;20025;-76
2023/09/21 04:54:00;;;;;;;;;;;;;;;18.29;100.00;99014.69;4979295;28;20021;-75
2023/09/21 04:56:26;;;;;;;;;;;;;;;18.27;100.00;99022.06;4979061;28;20022;-80
2023/09/21 04:58:55;;;;;;;;;;;;;;;18.28;100.00;99023.72;4971876;28;19926;-76
2023/09/21 05:01:24;;;;;;;;;;;;;;;18.25;100.00;99029.50;4972675;28;19930;-78
2023/09/21 05:03:50;;;;;;;;;;;;;;;18.25;100.00;99034.81;4978852;28;20017;-79
2023/09/21 05:06:18;;;;;;;;;;;;;;;18.20;100.00;99037.25;4975820;28;20370;-79
2023/09/21 05:08:44;;;;;;;;;;;;;;;18.21;100.00;99038.09;4995554;28;19930;-77
2023/09/21 05:11:10;;;;;;;;;;;;;;;18.19;100.00;99043.66;4991654;28;20408;-79
2023/09/21 05:13:36;;;;;;;;;;;;;;;18.19;100.00;99040.97;4983490;28;19949;-78
2023/09/21 05:16:03;;;;;;;;;;;;;;;18.23;100.00;99036.88;4978205;28;20029;-78
2023/09/21 05:18:29;;;;;;;;;;;;;;;18.26;100.00;99025.75;4981062;28;19933;-78
2023/09/21 05:20:54;;;;;;;;;;;;;;;18.25;100.00;99029.50;4976648;28;19931;-76
2023/09/21 05:23:20;;;;;;;;;;;;;;;18.27;100.00;99030.09;4975277;28;19926;-78
2023/09/21 05:25:45;;;;;;;;;;;;;;;18.34;100.00;99032.75;4979296;28;19972;-76
2023/09/21 05:28:11;;;;;;;;;;;;;;;18.33;100.00;99037.28;4977116;28;20012;-75
2023/09/21 05:30:36;;;;;;;;;;;;;;;18.34;100.00;99044.28;4980229;28;20426;-73
2023/09/21 05:33:02;;;;;;;;;;;;;;;18.39;100.00;99047.16;4984656;28;19922;-75
2023/09/21 05:35:28;;;;;;;;;;;;;;;18.41;100.00;99055.78;4980653;28;19929;-76
2023/09/21 05:37:53;;;;;;;;;;;;;;;18.41;100.00;99063.81;4983779;28;19929;-76
2023/09/21 05:40:19;;;;;;;;;;;;;;;18.45;100.00;99066.03;4985610;28;20302;-77
2023/09/21 05:42:45;;;;;;;;;;;;;;;18.48;100.00;99079.00;4979482;28;19922;-77
2023/09/21 05:45:10;;;;;;;;;;;;;;;18.49;100.00;99075.31;4984074;28;19941;-77
2023/09/21 05:47:37;;;;;;;;;;;;;;;18.52;100.00;99072.22;4986323;28;19968;-77
2023/09/21 05:50:05;;;;;;;;;;;;;;;18.55;100.00;99079.88;4981563;28;20342;-76
2023/09/21 05:52:32;;;;;;;;;;;;;;;18.55;100.00;99083.38;4983266;28;19992;-76
2023/09/21 05:54:57;;;;;;;;;;;;;;;18.56;100.00;99081.50;4985775;28;20037;-75
2023/09/21 05:57:23;;;;;;;;;;;;;;;18.55;100.00;99083.38;4982919;28;20414;-76
2023/09/21 05:59:50;;;;;;;;;;;;;;;18.56;100.00;99084.16;4984247;28;19932;-77
2023/09/21 06:02:15;;;;;;;;;;;;;;;18.46;100.00;99089.06;4984429;28;19918;-76
2023/09/21 06:04:41;;;;;;;;;;;;;;;18.41;100.00;99087.84;4982979;28;20290;-76
2023/09/21 06:07:07;;;;;;;;;;;;;;;18.42;100.00;99088.66;4982454;28;19940;-76
2023/09/21 06:09:33;;;;;;;;;;;;;;;18.36;100.00;99084.97;4984882;28;20335;-77
2023/09/21 06:11:59;;;;;;;;;;;;;;;18.41;100.00;99087.84;4981822;28;19926;-76
2023/09/21 06:14:25;;;;;;;;;;;;;;;18.46;100.00;99081.06;4983929;28;19926;-76
2023/09/21 06:16:51;;;;;;;;;;;;;;;18.48;100.00;99082.50;4985097;28;19929;-76
2023/09/21 06:19:17;;;;;;;;;;;;;;;18.51;100.00;99081.25;4982928;28;19922;-76
2023/09/21 06:21:45;;;;;;;;;;;;;;;18.54;100.00;99080.88;4983188;28;19922;-76
2023/09/21 06:24:11;;;;;;;;;;;;;;;18.52;100.00;99081.06;4982213;28;20294;-76
2023/09/21 06:26:37;;;;;;;;;;;;;;;18.48;100.00;99076.34;4981327;28;19921;-76
2023/09/21 06:29:03;;;;;;;;;;;;;;;18.48;100.00;99082.50;4984468;28;19976;-76
2023/09/21 06:31:28;;;;;;;;;;;;;;;18.51;100.00;99086.59;4981265;28;19944;-76
2023/09/21 06:33:57;;;;;;;;;;;;;;;18.55;100.00;99082.53;4983323;28;19930;-76
2023/09/21 06:36:24;;;;;;;;;;;;;;;18.53;100.00;99079.22;4984194;28;19933;-76
2023/09/21 06:38:53;;;;;;;;;;;;;;;18.44;100.00;99075.13;4982028;28;20422;-76
2023/09/21 06:41:19;;;;;;;;;;;;;;;18.51;100.00;99081.25;4983826;28;20337;-76
2023/09/21 06:43:44;;;;;;;;;;;;;;;18.56;100.00;99076.97;4982338;28;19928;-75
2023/09/21 06:46:10;;;;;;;;;;;;;;;18.60;100.00;99074.72;4982155;28;20311;-75
2023/09/21 06:48:35;;;;;;;;;;;;;;;18.64;100.00;99076.78;4983832;28;19965;-76
2023/09/21 06:51:01;;;;;;;;;;;;;;;18.71;100.00;99074.09;4981682;28;20302;-76
2023/09/21 06:53:29;;;;;;;;;;;;;;;18.77;100.00;99070.59;4982991;28;20507;-76
2023/09/21 06:55:55;;;;;;;;;;;;;;;18.85;100.00;99067.69;4977680;28;20399;-76
2023/09/21 06:58:20;;;;;;;;;;;;;;;18.86;100.00;99066.69;4979552;28;20299;-76
2023/09/21 07:00:46;;;;;;;;;;;;;;;18.93;100.00;99064.81;4983435;28;19922;-75
2023/09/21 07:03:12;;;;;;;;;;;;;;;19.01;100.00;99055.78;4983169;28;20432;-76
2023/09/21 07:05:40;;;;;;;;;;;;;;;19.05;100.00;99052.47;4979734;28;19922;-76
2023/09/21 07:08:06;;;;;;;;;;;;;;;19.10;100.00;99047.31;4982748;28;19929;-76
2023/09/21 07:10:32;;;;;;;;;;;;;;;19.16;100.00;99045.66;4980751;28;21488;-76
2023/09/21 07:12:58;;;;;;;;;;;;;;;19.23;100.00;99049.13;4982825;28;20015;-76
2023/09/21 07:15:23;;;;;;;;;;;;;;;19.26;100.00;99042.53;4982760;28;20374;-76
2023/09/21 07:17:50;;;;;;;;;;;;;;;19.33;100.00;99037.97;4979204;28;19928;-75
2023/09/21 07:20:23;;;;;;;;;;;;;;;19.41;100.00;99029.72;4982258;28;20637;-76
2023/09/21 07:22:49;;;;;;;;;;;;;;;19.45;100.00;99030.94;4981567;28;19925;-76
2023/09/21 07:25:14;;;;;;;;;;;;;;;19.45;100.00;99028.25;4980324;28;19922;-74
2023/09/21 07:27:40;;;;;;;;;;;;;;;19.51;100.00;99030.13;4978967;28;20302;-74
2023/09/21 07:30:06;;;;;;;;;;;;;;;19.57;100.00;99034.63;4980601;28;19922;-76
2023/09/21 07:32:32;;;;;;;;;;;;;;;19.59;100.00;99037.91;4981888;28;20375;-76
2023/09/21 07:34:58;;;;;;;;;;;;;;;19.68;100.00;99044.66;4986598;28;19929;-75
2023/09/21 07:37:23;;;;;;;;;;;;;;;19.79;100.00;99052.00;4980139;28;19922;-77
2023/09/21 07:39:49;;;;;;;;;;;;;;;19.85;100.00;99063.75;4983014;28;19929;-77
2023/09/21 07:42:15;;;;;;;;;;;;;;;19.84;100.00;99062.91;4982019;28;19948;-76
2023/09/21 07:44:44;;;;;;;;;;;;;;;19.87;100.00;99061.66;4980229;28;19929;-76
2023/09/21 07:47:10;;;;;;;;;;;;;;;19.71;100.00;99068.31;4982331;28;19953;-77
2023/09/21 07:49:35;;;;;;;;;;;;;;;19.78;100.00;99070.97;4998165;28;19929;-77
2023/09/21 07:52:01;;;;;;;;;;;;;;;19.81;100.00;99074.03;4980841;28;19922;-77
2023/09/21 07:54:27;;;;;;;;;;;;;;;19.82;100.00;99075.69;4983923;28;20569;-77
2023/09/21 07:56:53;;;;;;;;;;;;;;;19.78;100.00;99074.47;4977107;28;19921;-78
2023/09/21 07:59:18;;;;;;;;;;;;;;;19.82;100.00;99081.03;4980529;28;19933;-77
2023/09/21 08:01:44;;;;;;;;;;;;;;;19.85;100.00;99075.25;4983211;28;20030;-78
2023/09/21 08:04:10;;;;;;;;;;;;;;;19.79;100.00;99065.38;4980383;28;20012;-77
2023/09/21 08:06:36;;;;;;;;;;;;;;;19.80;100.00;99060.84;4981633;28;19918;-77
2023/09/21 08:09:02;;;;;;;;;;;;;;;19.85;100.00;99074.44;4982678;28;19949;-77
2023/09/21 08:11:27;;;;;;;;;;;;;;;19.89;100.00;99073.81;4980876;28;19969;-77
2023/09/21 08:13:53;;;;;;;;;;;;;;;19.98;100.00;99067.16;4995777;28;20406;-77
2023/09/21 08:16:18;;;;;;;;;;;;;;;20.05;100.00;99064.44;4979415;28;19930;-77
2023/09/21 08:18:44;;;;;;;;;;;;;;;20.13;100.00;99055.31;4980138;28;20280;-77
2023/09/21 08:21:10;;;;;;;;;;;;;;;20.20;100.00;99061.47;4994802;28;20445;-77
2023/09/21 08:23:36;;;;;;;;;;;;;;;20.27;100.00;99056.84;4979293;28;20013;-77
2023/09/21 08:26:02;;;;;;;;;;;;;;;20.33;100.00;99061.38;4980977;28;19918;-77
2023/09/21 08:28:29;;;;;;;;;;;;;;;20.40;100.00;99067.53;4984621;28;19921;-77
2023/09/21 08:30:57;;;;;;;;;;;;;;;20.45;100.00;99081.09;4980062;28;19922;-77
2023/09/21 08:33:23;;;;;;;;;;;;;;;20.57;100.00;99075.84;4979070;28;19947;-77
2023/09/21 08:35:49;;;;;;;;;;;;;;;20.67;100.00;99078.88;4982247;28;19933;-77
2023/09/21 08:38:17;;;;;;;;;;;;;;;20.72;100.00;99082.53;4978947;28;20108;-76
2023/09/21 08:40:46;;;;;;;;;;;;;;;20.81;100.00;99086.56;4981688;28;19922;-77
2023/09/21 08:43:19;;;;;;;;;;;;;;;20.92;100.00;99086.88;4979734;28;20660;-77
2023/09/21 08:45:45;;;;;;;;;;;;;;;21.02;100.00;99082.66;4980577;28;20294;-76
2023/09/21 08:48:15;;;;;;;;;;;;;;;21.04;100.00;99074.38;4981508;28;20287;-77
2023/09/21 08:50:41;;;;;;;;;;;;;;;21.01;100.00;99070.28;4979985;28;19922;-76
2023/09/21 08:53:11;;;;;;;;;;;;;;;21.01;100.00;99070.28;4979011;28;19929;-78
2023/09/21 08:55:38;;;;;;;;;;;;;;;21.02;100.00;99066.56;4983186;28;19922;-77
2023/09/21 08:58:05;;;;;;;;;;;;;;;21.00;100.00;99067.81;4980865;28;19949;-77
2023/09/21 09:00:31;;;;;;;;;;;;;;;21.03;100.00;99062.03;4977943;28;19922;-78
2023/09/21 09:02:57;;;;;;;;;;;;;;;21.09;100.00;99066.47;4982519;28;20394;-77
2023/09/21 09:05:23;;;;;;;;;;;;;;;21.04;100.00;99069.00;4980065;28;19976;-76
2023/09/21 09:07:49;;;;;;;;;;;;;;;21.11;100.00;99078.66;4982487;28;19926;-77
2023/09/21 09:10:15;;;;;;;;;;;;;;;21.17;100.00;99076.97;4982652;28;19928;-77
2023/09/21 09:12:41;;;;;;;;;;;;;;;21.19;100.00;99077.56;4982916;28;20010;-77
2023/09/21 09:15:08;;;;;;;;;;;;;;;21.21;100.00;99075.47;4986404;28;20013;-77
2023/09/21 09:17:34;;;;;;;;;;;;;;;21.22;100.00;99072.56;4980933;28;20081;-77
2023/09/21 09:20:03;;;;;;;;;;;;;;;21.24;100.00;99075.03;4978250;28;20013;-77
2023/09/21 09:22:33;;;;;;;;;;;;;;;21.25;100.00;99076.69;4985511;28;20047;-77
2023/09/21 09:25:06;;;;;;;;;;;;;;;21.25;100.00;99071.31;4981707;28;19932;-75
2023/09/21 09:27:32;;;;;;;;;;;;;;;21.31;100.00;99064.22;4978542;28;19932;-78
2023/09/21 09:29:57;;;;;;;;;;;;;;;21.34;100.00;99064.59;4982482;28;20435;-77
2023/09/21 09:32:24;;;;;;;;;;;;;;;21.35;100.00;99060.88;4984658;28;19921;-77
2023/09/21 09:34:49;;;;;;;;;;;;;;;21.40;100.00;99073.63;4985775;28;20298;-77
2023/09/21 09:37:16;;;;;;;;;;;;;;;21.37;100.00;99069.53;4983458;28;19921;-76
2023/09/21 09:39:44;;;;;;;;;;;;;;;21.41;100.00;99065.34;4984136;28;19933;-76
2023/09/21 09:42:11;;;;;;;;;;;;;;;21.39;100.00;99067.44;4985100;28;20278;-77
2023/09/21 09:44:41;;;;;;;;;;;;;;;21.37;100.00;99069.53;4981451;28;19929;-77
2023/09/21 09:47:09;;;;;;;;;;;;;;;21.40;100.00;99069.06;4984534;28;20419;-77
2023/09/21 09:49:38;;;;;;;;;;;;;;;21.43;100.00;99063.28;4981678;28;19926;-77
2023/09/21 09:52:06;;;;;;;;;;;;;;;21.44;100.00;99056.84;4983125;28;20378;-77
2023/09/21 09:54:31;;;;;;;;;;;;;;;21.43;100.00;99057.91;4982612;28;19957;-77
2023/09/21 09:56:58;;;;;;;;;;;;;;;21.47;100.00;99053.72;4983143;28;19973;-78
2023/09/21 09:59:23;;;;;;;;;;;;;;;21.50;100.00;99047.88;4986419;28;20378;-77
2023/09/21 10:01:49;;;;;;;;;;;;;;;21.47;100.00;99056.41;4983364;28;20024;-77
2023/09/21 10:04:15;;;;;;;;;;;;;;;21.52;100.00;99053.03;4980119;28;20371;-78
2023/09/21 10:06:41;;;;;;;;;;;;;;;21.56;100.00;99044.28;4985685;28;20302;-78
2023/09/21 10:09:11;;;;;;;;;;;;;;;21.57;100.00;99042.44;4983607;28;19921;-76
2023/09/21 10:11:46;;;;;;;;;;;;;;;21.35;100.00;99042.09;4982403;28;19922;-76
2023/09/21 10:14:17;;;;;;;;;;;;;;;21.38;100.00;99051.56;4996376;28;19922;-78
2023/09/21 10:16:49;;;;;;;;;;;;;;;21.36;100.00;99057.16;4985224;28;19922;-77
2023/09/21 10:19:22;;;;;;;;;;;;;;;21.33;100.00;99041.47;4983276;28;19937;-78
2023/09/21 10:21:49;;;;;;;;;;;;;;;21.30;100.00;99035.75;4983235;28;19918;-78
2023/09/21 10:24:18;;;;;;;;;;;;;;;21.37;100.00;99034.66;4983133;28;19922;-78
2023/09/21 10:26:45;;;;;;;;;;;;;;;21.41;100.00;99030.47;4980885;28;19918;-78
2023/09/21 10:29:13;;;;;;;;;;;;;;;21.45;100.00;99028.94;4981974;28;19926;-77
2023/09/21 10:31:41;;;;;;;;;;;;;;;21.37;100.00;99015.03;4981807;28;19930;-78
2023/09/21 10:34:07;;;;;;;;;;;;;;;21.40;100.00;99004.66;4997878;28;20013;-78
2023/09/21 10:36:36;;;;;;;;;;;;;;;21.47;100.00;99010.75;4986929;28;19961;-78
2023/09/21 10:39:04;;;;;;;;;;;;;;;21.53;100.00;99003.66;4977429;28;19922;-78
2023/09/21 10:41:33;;;;;;;;;;;;;;;21.60;100.00;99010.59;4981176;28;19932;-78
2023/09/21 10:44:02;;;;;;;;;;;;;;;21.61;100.00;99006.88;4981972;28;20302;-78
2023/09/21 10:46:30;;;;;;;;;;;;;;;21.65;100.00;99002.69;4981774;28;19960;-77
2023/09/21 10:49:05;;;;;;;;;;;;;;;21.69;100.00;98996.84;4999353;28;20242;-77
2023/09/21 10:51:31;;;;;;;;;;;;;;;21.73;100.00;98992.66;4980841;28;19932;-75
2023/09/21 10:53:58;;;;;;;;;;;;;;;21.61;100.00;98990.75;4982828;28;20293;-76
2023/09/21 10:56:24;;;;;;;;;;;;;;;21.57;100.00;98988.75;4983672;28;19958;-77
2023/09/21 10:58:50;;;;;;;;;;;;;;;21.50;100.00;98983.44;4981780;28;19922;-78
2023/09/21 11:01:16;;;;;;;;;;;;;;;21.50;100.00;98972.72;4983644;28;19922;-77
2023/09/21 11:03:43;;;;;;;;;;;;;;;21.52;100.00;98970.63;4981834;28;19969;-76
2023/09/21 11:06:09;;;;;;;;;;;;;;;21.56;100.00;98974.50;4980623;28;19926;-75
2023/09/21 11:08:34;;;;;;;;;;;;;;;21.64;100.00;98963.44;4983442;28;19933;-75
2023/09/21 11:11:02;;;;;;;;;;;;;;;21.76;100.00;98965.34;4974750;28;20020;-74
2023/09/21 11:13:28;;;;;;;;;;;;;;;21.80;100.00;98966.50;4976807;28;19926;-77
2023/09/21 11:15:54;;;;;;;;;;;;;;;21.79;100.00;98978.34;4979727;28;19989;-75
2023/09/21 11:18:20;;;;;;;;;;;;;;;21.75;100.00;98974.44;4977712;28;19922;-76
2023/09/21 11:20:46;;;;;;;;;;;;;;;21.71;100.00;98968.72;4977060;28;19918;-77
2023/09/21 11:23:23;;;;;;;;;;;;;;;21.74;100.00;98967.44;4693531;28;9999960;-74
2023/09/21 11:25:49;;;;;;;;;;;;;;;21.74;100.00;98956.69;4976590;28;20016;-76
2023/09/21 11:28:16;;;;;;;;;;;;;;;21.76;100.00;98968.03;4975429;28;20036;-74
2023/09/21 11:30:42;;;;;;;;;;;;;;;21.69;100.00;98969.97;4978266;28;19952;-75
2023/09/21 11:33:08;;;;;;;;;;;;;;;21.67;100.00;98961.38;4978857;28;19942;-75
2023/09/21 11:35:33;;;;;;;;;;;;;;;21.63;100.00;98961.81;4976635;28;20020;-74
2023/09/21 11:37:59;;;;;;;;;;;;;;;21.65;100.00;98954.34;4983307;28;19922;-74
2023/09/21 11:40:26;;;;;;;;;;;;;;;21.70;100.00;98944.78;4984011;28;20441;-74
2023/09/21 11:42:59;;;;;;;;;;;;;;;21.76;100.00;98941.19;4982973;28;19933;-74
2023/09/21 11:45:25;;;;;;;;;;;;;;;21.79;100.00;98932.69;4979578;28;20042;-74
2023/09/21 11:47:52;;;;;;;;;;;;;;;21.79;100.00;98938.03;4978120;28;20008;-73
2023/09/21 11:50:20;;;;;;;;;;;;;;;21.80;100.00;98928.91;4980486;28;20370;-76
2023/09/21 11:52:46;;;;;;;;;;;;;;;21.78;100.00;98931.03;4980147;28;20020;-76
2023/09/21 11:55:12;;;;;;;;;;;;;;;21.77;100.00;98929.38;4982044;28;19999;-73
2023/09/21 11:57:39;;;;;;;;;;;;;;;21.79;100.00;98930.00;4983186;28;19934;-73
2023/09/21 12:00:26;;;;;;;;;;;;;;;21.75;100.00;98926.09;4977837;28;19928;-73
2023/09/21 12:02:51;;;;;;;;;;;;;;;21.79;100.00;98916.56;4978269;28;20379;-76
2023/09/21 12:05:16;;;;;;;;;;;;;;;21.77;100.00;98907.91;4976800;28;19926;-75
2023/09/21 12:07:42;;;;;;;;;;;;;;;21.77;100.00;98913.28;4978082;28;19921;-78
2023/09/21 12:10:07;;;;;;;;;;;;;;;21.75;100.00;98899.25;4977521;28;19922;-76
2023/09/21 12:12:33;;;;;;;;;;;;;;;21.79;100.00;98895.06;4994092;28;19922;-76
2023/09/21 12:14:58;;;;;;;;;;;;;;;21.83;100.00;98885.50;4976618;28;19930;-76
2023/09/21 12:17:26;;;;;;;;;;;;;;;21.84;100.00;98877.22;4979222;28;20020;-76
2023/09/21 12:19:53;;;;;;;;;;;;;;;21.96;100.00;98882.63;4978069;28;19972;-75
2023/09/21 12:22:18;;;;;;;;;;;;;;;21.97;100.00;98897.72;4977439;28;19922;-75
2023/09/21 12:24:44;;;;;;;;;;;;;;;21.93;100.00;98896.47;4976895;28;20330;-73
2023/09/21 12:27:10;;;;;;;;;;;;;;;21.85;100.00;98894.16;4977182;28;19926;-75
2023/09/21 12:29:36;;;;;;;;;;;;;;;21.82;100.00;98894.59;4981671;28;19926;-75
2023/09/21 12:32:05;;;;;;;;;;;;;;;21.79;100.00;98892.41;4982786;28;19976;-75
2023/09/21 12:34:34;;;;;;;;;;;;;;;21.74;100.00;98881.50;4979716;28;20341;-77